createdAt,value
2018-08-16T00:00:18.427Z,20.12
2018-08-16T00:01:18.454Z,20.17
2018-08-16T00:02:18.482Z,20.26
2018-08-16T00:03:18.506Z,20.19
2018-08-16T00:04:18.532Z,20.16
2018-08-16T00:05:18.554Z,20.15
2018-08-16T00:06:18.585Z,20.08
2018-08-16T00:07:18.607Z,20.10
2018-08-16T00:08:18.630Z,20.16
2018-08-16T00:09:18.651Z,20.15
2018-08-16T00:10:18.678Z,20.10
2018-08-16T00:11:18.710Z,20.19
2018-08-16T00:12:18.732Z,20.12
2018-08-16T00:13:18.754Z,20.15
2018-08-16T00:14:18.780Z,20.10
2018-08-16T00:15:18.806Z,20.17
2018-08-16T00:16:18.839Z,20.05
2018-08-16T00:17:18.850Z,20.22
2018-08-16T00:18:18.878Z,20.12
2018-08-16T00:19:18.904Z,20.12
2018-08-16T00:20:18.930Z,20.10
2018-08-16T00:21:18.949Z,20.13
2018-08-16T00:22:18.972Z,20.10
2018-08-16T00:23:19.000Z,20.12
2018-08-16T00:24:19.024Z,20.10
2018-08-16T00:25:19.050Z,20.05
2018-08-16T00:26:19.074Z,20.05
2018-08-16T00:27:19.098Z,20.10
2018-08-16T00:28:19.130Z,20.02
2018-08-16T00:29:19.155Z,20.00
2018-08-16T00:30:19.176Z,20.05
2018-08-16T00:31:19.202Z,19.94
2018-08-16T00:32:19.224Z,20.01
2018-08-16T00:33:19.255Z,20.02
2018-08-16T00:34:19.270Z,19.94
2018-08-16T00:35:19.300Z,19.94
2018-08-16T00:36:19.318Z,19.85
2018-08-16T00:37:19.345Z,19.90
2018-08-16T00:38:19.370Z,19.86
2018-08-16T00:39:19.394Z,19.83
2018-08-16T00:40:19.419Z,19.90
2018-08-16T00:41:19.444Z,19.85
2018-08-16T00:42:19.472Z,19.89
2018-08-16T00:43:19.496Z,19.89
2018-08-16T00:44:19.523Z,19.87
2018-08-16T00:45:19.545Z,19.87
2018-08-16T00:46:19.566Z,19.85
2018-08-16T00:47:19.593Z,19.92
2018-08-16T00:48:19.619Z,19.83
2018-08-16T00:49:19.644Z,19.85
2018-08-16T00:50:19.664Z,19.83
2018-08-16T00:51:19.693Z,19.79
2018-08-16T00:52:19.712Z,19.85
2018-08-16T00:53:19.739Z,19.90
2018-08-16T00:54:19.774Z,19.82
2018-08-16T00:55:19.789Z,19.87
2018-08-16T00:56:19.816Z,19.82
2018-08-16T00:57:19.839Z,19.89
2018-08-16T00:58:19.866Z,19.86
2018-08-16T00:59:19.890Z,19.86
2018-08-16T01:00:19.912Z,19.82
2018-08-16T01:01:19.944Z,19.82
2018-08-16T01:02:19.959Z,19.82
2018-08-16T01:03:19.985Z,19.75
2018-08-16T01:04:20.010Z,19.76
2018-08-16T01:05:20.038Z,19.83
2018-08-16T01:06:20.060Z,19.76
2018-08-16T01:07:20.086Z,19.80
2018-08-16T01:08:20.110Z,19.64
2018-08-16T01:09:20.136Z,19.64
2018-08-16T01:10:20.156Z,19.65
2018-08-16T01:11:20.184Z,19.71
2018-08-16T01:12:20.204Z,19.67
2018-08-16T01:13:20.235Z,19.67
2018-08-16T01:14:20.258Z,19.67
2018-08-16T01:15:20.280Z,19.64
2018-08-16T01:16:20.311Z,19.64
2018-08-16T01:17:20.330Z,19.67
2018-08-16T01:18:20.355Z,19.65
2018-08-16T01:19:20.381Z,19.61
2018-08-16T01:20:20.525Z,19.70
2018-08-16T01:21:20.422Z,19.65
2018-08-16T01:22:20.453Z,19.64
2018-08-16T01:23:20.480Z,19.67
2018-08-16T01:24:20.504Z,19.55
2018-08-16T01:25:20.526Z,19.55
2018-08-16T01:26:20.551Z,19.68
2018-08-16T01:27:20.576Z,19.58
2018-08-16T01:28:20.603Z,19.64
2018-08-16T01:29:20.624Z,19.61
2018-08-16T01:30:20.648Z,19.57
2018-08-16T01:31:20.678Z,19.58
2018-08-16T01:32:20.908Z,19.57
2018-08-16T01:33:20.721Z,19.55
2018-08-16T01:34:20.748Z,19.55
2018-08-16T01:36:20.793Z,19.46
2018-08-16T01:37:20.817Z,19.46
2018-08-16T01:38:20.841Z,19.43
2018-08-16T01:39:20.877Z,19.49
2018-08-16T01:40:20.893Z,19.49
2018-08-16T01:41:20.918Z,19.46
2018-08-16T01:42:20.942Z,19.47
2018-08-16T01:43:20.967Z,19.49
2018-08-16T01:44:20.996Z,19.46
2018-08-16T01:45:21.015Z,19.39
2018-08-16T01:46:21.039Z,19.40
2018-08-16T01:47:21.064Z,19.45
2018-08-16T01:48:21.087Z,19.38
2018-08-16T01:49:21.110Z,19.34
2018-08-16T01:50:21.137Z,19.38
2018-08-16T01:51:21.160Z,19.38
2018-08-16T01:52:21.184Z,19.32
2018-08-16T01:53:21.214Z,19.31
2018-08-16T01:54:21.232Z,19.31
2018-08-16T01:55:21.264Z,19.35
2018-08-16T01:56:21.288Z,19.38
2018-08-16T01:57:21.309Z,19.32
2018-08-16T01:58:21.334Z,19.38
2018-08-16T02:00:49.011Z,19.27
2018-08-16T02:01:49.030Z,19.27
2018-08-16T02:02:49.052Z,19.30
2018-08-16T02:03:49.078Z,19.23
2018-08-16T02:04:49.101Z,19.28
2018-08-16T02:05:49.128Z,19.27
2018-08-16T02:06:49.155Z,19.25
2018-08-16T02:07:49.176Z,19.20
2018-08-16T02:08:49.202Z,19.23
2018-08-16T02:09:49.229Z,19.20
2018-08-16T02:10:49.250Z,19.10
2018-08-16T02:11:49.273Z,19.23
2018-08-16T02:12:49.295Z,19.20
2018-08-16T02:13:49.321Z,19.15
2018-08-16T02:14:49.353Z,19.13
2018-08-16T02:15:49.373Z,19.16
2018-08-16T02:16:49.601Z,19.17
2018-08-16T02:17:49.429Z,19.17
2018-08-16T02:18:49.442Z,19.16
2018-08-16T02:19:49.471Z,19.24
2018-08-16T02:20:49.491Z,19.21
2018-08-16T02:21:49.515Z,19.20
2018-08-16T02:22:49.540Z,19.13
2018-08-16T02:23:49.565Z,19.17
2018-08-16T02:24:49.584Z,19.15
2018-08-16T02:25:49.610Z,19.10
2018-08-16T02:26:49.635Z,19.09
2018-08-16T02:27:49.665Z,19.17
2018-08-16T02:28:49.686Z,19.12
2018-08-16T02:29:49.709Z,19.07
2018-08-16T02:30:49.734Z,19.09
2018-08-16T02:31:49.761Z,19.10
2018-08-16T02:32:49.780Z,19.07
2018-08-16T02:33:49.805Z,19.13
2018-08-16T02:34:49.830Z,19.05
2018-08-16T02:35:49.854Z,19.07
2018-08-16T02:36:49.881Z,19.05
2018-08-16T02:37:49.901Z,19.01
2018-08-16T02:38:49.925Z,18.97
2018-08-16T02:39:49.952Z,18.97
2018-08-16T02:40:49.987Z,19.06
2018-08-16T02:41:49.997Z,19.06
2018-08-16T02:42:50.023Z,19.02
2018-08-16T02:43:50.044Z,18.93
2018-08-16T02:44:50.072Z,19.06
2018-08-16T02:45:50.091Z,19.01
2018-08-16T02:46:50.120Z,19.02
2018-08-16T02:47:50.141Z,19.06
2018-08-16T02:48:50.169Z,19.06
2018-08-16T02:49:50.195Z,18.97
2018-08-16T02:50:50.224Z,19.01
2018-08-16T02:51:50.241Z,18.90
2018-08-16T02:52:50.265Z,18.91
2018-08-16T02:53:50.292Z,18.94
2018-08-16T02:54:50.315Z,18.96
2018-08-16T02:55:50.331Z,18.86
2018-08-16T02:56:50.360Z,18.93
2018-08-16T02:57:50.386Z,18.90
2018-08-16T02:58:50.409Z,18.90
2018-08-16T02:59:50.448Z,18.87
2018-08-16T03:00:50.461Z,18.86
2018-08-16T03:01:50.481Z,18.86
2018-08-16T03:02:50.507Z,18.82
2018-08-16T03:03:50.533Z,18.86
2018-08-16T03:04:50.551Z,18.91
2018-08-16T03:05:50.579Z,18.78
2018-08-16T03:06:50.603Z,18.89
2018-08-16T03:07:50.623Z,18.74
2018-08-16T03:08:50.649Z,18.78
2018-08-16T03:09:50.674Z,18.75
2018-08-16T03:10:50.699Z,18.82
2018-08-16T03:11:50.721Z,18.75
2018-08-16T03:12:50.746Z,18.83
2018-08-16T03:13:50.774Z,18.84
2018-08-16T03:14:50.794Z,18.75
2018-08-16T03:15:50.815Z,18.79
2018-08-16T03:16:50.836Z,18.78
2018-08-16T03:17:50.864Z,18.78
2018-08-16T03:18:50.888Z,18.76
2018-08-16T03:19:50.913Z,18.76
2018-08-16T03:20:50.940Z,18.79
2018-08-16T03:21:50.957Z,18.74
2018-08-16T03:22:50.982Z,18.76
2018-08-16T03:23:51.008Z,18.75
2018-08-16T03:24:51.035Z,18.72
2018-08-16T03:25:51.060Z,18.72
2018-08-16T03:26:51.084Z,18.75
2018-08-16T03:27:51.098Z,18.74
2018-08-16T03:28:51.130Z,18.75
2018-08-16T03:29:51.153Z,18.72
2018-08-16T03:30:51.179Z,18.74
2018-08-16T03:31:51.195Z,18.71
2018-08-16T03:32:51.224Z,18.76
2018-08-16T03:33:51.248Z,18.76
2018-08-16T03:34:51.270Z,18.65
2018-08-16T03:35:51.297Z,18.74
2018-08-16T03:36:51.317Z,18.68
2018-08-16T03:37:51.340Z,18.79
2018-08-16T03:38:51.370Z,18.71
2018-08-16T03:39:51.390Z,18.72
2018-08-16T03:40:51.416Z,18.65
2018-08-16T03:41:51.436Z,18.69
2018-08-16T03:42:51.462Z,18.64
2018-08-16T03:43:51.487Z,18.69
2018-08-16T03:44:51.519Z,18.74
2018-08-16T03:45:51.540Z,18.69
2018-08-16T03:46:51.555Z,18.66
2018-08-16T03:47:51.581Z,18.66
2018-08-16T03:48:51.609Z,18.68
2018-08-16T03:49:51.628Z,18.64
2018-08-16T03:50:51.660Z,18.66
2018-08-16T03:51:51.679Z,18.62
2018-08-16T03:52:51.705Z,18.72
2018-08-16T03:53:51.727Z,18.71
2018-08-16T03:54:51.751Z,18.69
2018-08-16T03:55:51.775Z,18.60
2018-08-16T03:56:51.796Z,18.68
2018-08-16T03:57:51.823Z,18.65
2018-08-16T03:58:51.847Z,18.66
2018-08-16T03:59:51.869Z,18.69
2018-08-16T04:00:51.901Z,18.65
2018-08-16T04:01:51.914Z,18.65
2018-08-16T04:02:51.943Z,18.65
2018-08-16T04:03:51.965Z,18.66
2018-08-16T04:04:51.987Z,18.66
2018-08-16T04:05:52.011Z,18.65
2018-08-16T04:06:52.035Z,18.68
2018-08-16T04:07:52.062Z,18.65
2018-08-16T04:08:52.087Z,18.65
2018-08-16T04:09:52.108Z,18.62
2018-08-16T04:10:52.138Z,18.71
2018-08-16T04:11:52.162Z,18.68
2018-08-16T04:12:52.181Z,18.71
2018-08-16T04:13:52.205Z,18.56
2018-08-16T04:14:52.228Z,18.56
2018-08-16T04:15:52.247Z,18.60
2018-08-16T04:16:52.275Z,18.66
2018-08-16T04:17:52.297Z,18.66
2018-08-16T04:18:52.323Z,18.64
2018-08-16T04:19:52.349Z,18.57
2018-08-16T04:20:52.371Z,18.68
2018-08-16T04:21:52.396Z,18.56
2018-08-16T04:22:52.416Z,18.66
2018-08-16T04:23:52.445Z,18.68
2018-08-16T04:24:52.471Z,18.62
2018-08-16T04:25:52.491Z,18.68
2018-08-16T04:26:52.516Z,18.64
2018-08-16T04:27:52.536Z,18.65
2018-08-16T04:28:52.558Z,18.60
2018-08-16T04:29:52.584Z,18.68
2018-08-16T04:30:52.602Z,18.68
2018-08-16T04:31:52.630Z,18.66
2018-08-16T04:32:52.658Z,18.60
2018-08-16T04:33:52.678Z,18.62
2018-08-16T04:34:52.703Z,18.59
2018-08-16T04:35:52.734Z,18.54
2018-08-16T04:36:52.752Z,18.60
2018-08-16T04:37:52.772Z,18.57
2018-08-16T04:38:52.796Z,18.57
2018-08-16T04:39:52.823Z,18.56
2018-08-16T04:40:52.843Z,18.50
2018-08-16T04:41:52.883Z,18.59
2018-08-16T04:42:52.898Z,18.57
2018-08-16T04:43:52.915Z,18.49
2018-08-16T04:44:52.942Z,18.50
2018-08-16T04:45:52.966Z,18.50
2018-08-16T04:46:52.982Z,18.49
2018-08-16T04:47:53.016Z,18.54
2018-08-16T04:48:53.032Z,18.64
2018-08-16T04:49:53.062Z,18.62
2018-08-16T04:50:53.093Z,18.65
2018-08-16T04:51:53.103Z,18.59
2018-08-16T04:52:53.129Z,18.59
2018-08-16T04:53:53.154Z,18.57
2018-08-16T04:54:53.180Z,18.69
2018-08-16T04:55:53.206Z,18.68
2018-08-16T04:56:53.242Z,18.68
2018-08-16T04:57:53.251Z,18.66
2018-08-16T04:58:53.274Z,18.68
2018-08-16T04:59:53.296Z,18.65
2018-08-16T05:00:53.324Z,18.65
2018-08-16T05:01:53.344Z,18.62
2018-08-16T05:02:53.375Z,18.66
2018-08-16T05:03:53.394Z,18.71
2018-08-16T05:04:53.422Z,18.59
2018-08-16T05:05:53.442Z,18.69
2018-08-16T05:06:53.466Z,18.68
2018-08-16T05:07:53.490Z,18.68
2018-08-16T05:08:53.513Z,18.62
2018-08-16T05:09:53.536Z,18.64
2018-08-16T05:10:53.561Z,18.64
2018-08-16T05:11:53.590Z,18.69
2018-08-16T05:12:53.611Z,18.65
2018-08-16T05:13:53.632Z,18.59
2018-08-16T05:14:53.661Z,18.65
2018-08-16T05:15:53.684Z,18.66
2018-08-16T05:16:53.703Z,18.59
2018-08-16T05:17:53.723Z,18.60
2018-08-16T05:18:53.750Z,18.65
2018-08-16T05:19:53.782Z,18.69
2018-08-16T05:20:53.800Z,18.64
2018-08-16T05:21:53.814Z,18.75
2018-08-16T05:22:53.843Z,18.72
2018-08-16T05:23:53.910Z,18.72
2018-08-16T05:24:53.892Z,18.76
2018-08-16T05:25:53.920Z,18.75
2018-08-16T05:26:53.947Z,18.71
2018-08-16T05:27:53.963Z,18.76
2018-08-16T05:28:53.999Z,18.76
2018-08-16T05:29:54.012Z,18.75
2018-08-16T05:30:54.038Z,18.76
2018-08-16T05:31:54.064Z,18.78
2018-08-16T05:32:54.084Z,18.79
2018-08-16T05:33:54.109Z,18.74
2018-08-16T05:34:54.130Z,18.79
2018-08-16T05:35:54.162Z,18.76
2018-08-16T05:36:54.190Z,18.76
2018-08-16T05:37:54.203Z,18.86
2018-08-16T05:38:54.223Z,18.87
2018-08-16T05:39:54.252Z,18.87
2018-08-16T05:40:54.279Z,18.84
2018-08-16T05:41:54.297Z,18.86
2018-08-16T05:42:54.381Z,18.83
2018-08-16T05:43:54.346Z,18.84
2018-08-16T05:44:54.371Z,18.87
2018-08-16T05:45:54.462Z,18.86
2018-08-16T05:46:54.422Z,18.91
2018-08-16T05:47:54.449Z,18.90
2018-08-16T05:48:54.469Z,18.93
2018-08-16T05:49:54.491Z,18.87
2018-08-16T05:50:54.575Z,19.02
2018-08-16T05:51:54.544Z,19.01
2018-08-16T05:52:54.563Z,19.01
2018-08-16T05:53:54.588Z,19.02
2018-08-16T05:54:54.614Z,19.09
2018-08-16T05:55:54.634Z,19.09
2018-08-16T05:56:54.666Z,19.10
2018-08-16T05:57:54.687Z,19.13
2018-08-16T05:58:54.709Z,19.12
2018-08-16T05:59:54.738Z,19.16
2018-08-16T06:00:54.760Z,19.20
2018-08-16T06:01:54.782Z,19.24
2018-08-16T06:02:54.806Z,19.28
2018-08-16T06:03:54.838Z,19.27
2018-08-16T06:04:54.853Z,19.24
2018-08-16T06:05:54.880Z,19.23
2018-08-16T06:06:54.906Z,19.35
2018-08-16T06:07:54.929Z,19.38
2018-08-16T06:08:54.952Z,19.40
2018-08-16T06:09:54.984Z,19.42
2018-08-16T06:10:54.998Z,19.46
2018-08-16T06:11:55.022Z,19.53
2018-08-16T06:12:55.048Z,19.45
2018-08-16T06:13:55.071Z,19.52
2018-08-16T06:14:55.096Z,19.57
2018-08-16T06:15:55.139Z,19.60
2018-08-16T06:16:55.149Z,19.58
2018-08-16T06:17:55.172Z,19.70
2018-08-16T06:18:55.191Z,19.65
2018-08-16T06:19:55.219Z,19.67
2018-08-16T06:20:55.249Z,19.67
2018-08-16T06:21:55.267Z,19.71
2018-08-16T06:22:55.294Z,19.65
2018-08-16T06:23:55.358Z,19.64
2018-08-16T06:24:55.342Z,19.76
2018-08-16T06:25:55.362Z,19.75
2018-08-16T06:26:55.384Z,19.75
2018-08-16T06:27:55.412Z,19.86
2018-08-16T06:28:55.438Z,19.86
2018-08-16T06:29:55.458Z,19.83
2018-08-16T06:30:55.494Z,19.86
2018-08-16T06:31:55.510Z,19.86
2018-08-16T06:32:55.531Z,19.86
2018-08-16T06:33:55.562Z,19.86
2018-08-16T06:34:55.578Z,19.85
2018-08-16T06:35:55.610Z,19.86
2018-08-16T06:36:55.640Z,19.86
2018-08-16T06:37:55.649Z,19.85
2018-08-16T06:38:55.702Z,19.86
2018-08-16T06:39:55.708Z,19.94
2018-08-16T06:40:55.746Z,19.94
2018-08-16T06:41:55.757Z,20.08
2018-08-16T06:42:55.782Z,20.04
2018-08-16T06:43:55.809Z,20.04
2018-08-16T06:44:55.829Z,20.07
2018-08-16T06:45:55.851Z,20.05
2018-08-16T06:46:55.876Z,20.13
2018-08-16T06:47:55.900Z,20.13
2018-08-16T06:48:55.932Z,20.16
2018-08-16T06:49:55.951Z,20.23
2018-08-16T06:50:55.978Z,20.23
2018-08-16T06:51:56.003Z,20.22
2018-08-16T06:52:56.026Z,20.25
2018-08-16T06:53:56.046Z,20.31
2018-08-16T06:54:56.070Z,20.23
2018-08-16T06:55:56.102Z,20.30
2018-08-16T06:56:56.124Z,20.30
2018-08-16T06:57:56.154Z,20.26
2018-08-16T06:58:56.172Z,20.25
2018-08-16T06:59:56.200Z,20.25
2018-08-16T07:00:56.222Z,20.40
2018-08-16T07:01:56.252Z,20.37
2018-08-16T07:02:56.270Z,20.38
2018-08-16T07:03:56.299Z,20.42
2018-08-16T07:04:56.400Z,20.48
2018-08-16T07:05:56.347Z,20.50
2018-08-16T07:06:56.373Z,20.57
2018-08-16T07:07:56.400Z,20.50
2018-08-16T07:08:56.427Z,20.48
2018-08-16T07:09:56.446Z,20.58
2018-08-16T07:10:56.470Z,20.63
2018-08-16T07:11:56.502Z,20.72
2018-08-16T07:12:56.518Z,20.66
2018-08-16T07:13:56.546Z,20.69
2018-08-16T07:14:56.572Z,20.72
2018-08-16T07:15:56.599Z,20.79
2018-08-16T07:16:56.620Z,20.82
2018-08-16T07:17:56.646Z,20.82
2018-08-16T07:18:56.678Z,20.82
2018-08-16T07:19:56.692Z,20.90
2018-08-16T07:20:56.718Z,20.97
2018-08-16T07:21:56.746Z,20.98
2018-08-16T07:22:56.770Z,20.98
2018-08-16T07:23:56.789Z,20.98
2018-08-16T07:24:56.905Z,21.09
2018-08-16T07:25:56.843Z,21.08
2018-08-16T07:26:56.869Z,21.11
2018-08-16T07:27:56.902Z,21.15
2018-08-16T07:28:56.922Z,21.22
2018-08-16T07:29:56.979Z,21.24
2018-08-16T07:30:56.973Z,21.37
2018-08-16T07:31:56.994Z,21.45
2018-08-16T07:32:57.026Z,21.53
2018-08-16T07:33:57.047Z,21.56
2018-08-16T07:34:57.072Z,21.77
2018-08-16T07:35:57.102Z,21.89
2018-08-16T07:36:57.120Z,21.96
2018-08-16T07:37:57.142Z,22.02
2018-08-16T07:38:57.172Z,22.14
2018-08-16T07:39:57.202Z,22.17
2018-08-16T07:40:57.221Z,21.99
2018-08-16T07:41:57.248Z,22.05
2018-08-16T07:42:57.283Z,22.08
2018-08-16T07:43:57.318Z,22.06
2018-08-16T07:44:57.345Z,22.08
2018-08-16T07:45:57.441Z,22.04
2018-08-16T07:46:57.377Z,22.02
2018-08-16T07:47:57.408Z,21.91
2018-08-16T07:48:57.431Z,22.06
2018-08-16T07:49:57.469Z,21.99
2018-08-16T07:50:57.482Z,21.99
2018-08-16T07:51:57.569Z,21.96
2018-08-16T07:52:57.537Z,21.89
2018-08-16T07:53:57.560Z,21.83
2018-08-16T07:54:57.590Z,21.89
2018-08-16T07:55:57.606Z,21.93
2018-08-16T07:56:57.695Z,22.04
2018-08-16T07:57:57.661Z,21.90
2018-08-16T07:58:57.686Z,21.91
2018-08-16T07:59:57.710Z,21.94
2018-08-16T08:00:57.736Z,21.90
2018-08-16T08:01:57.760Z,21.91
2018-08-16T08:02:57.791Z,22.05
2018-08-16T08:03:57.813Z,22.08
2018-08-16T08:04:57.840Z,22.05
2018-08-16T08:05:57.872Z,22.11
2018-08-16T08:06:57.899Z,22.11
2018-08-16T08:07:57.927Z,22.06
2018-08-16T08:08:57.974Z,22.09
2018-08-16T08:09:57.974Z,22.11
2018-08-16T08:10:57.992Z,22.14
2018-08-16T08:11:58.024Z,22.15
2018-08-16T08:12:58.051Z,22.27
2018-08-16T08:13:58.078Z,22.31
2018-08-16T08:14:58.098Z,22.26
2018-08-16T08:15:58.134Z,22.29
2018-08-16T08:16:58.155Z,22.21
2018-08-16T08:17:58.172Z,22.35
2018-08-16T08:18:58.208Z,22.27
2018-08-16T08:19:58.226Z,22.36
2018-08-16T08:20:58.264Z,22.42
2018-08-16T08:21:58.276Z,22.45
2018-08-16T08:22:58.308Z,22.48
2018-08-16T08:23:58.334Z,22.49
2018-08-16T08:24:58.358Z,22.52
2018-08-16T08:25:58.380Z,22.57
2018-08-16T08:26:58.404Z,22.52
2018-08-16T08:27:58.436Z,22.63
2018-08-16T08:28:58.464Z,22.64
2018-08-16T08:29:58.487Z,22.74
2018-08-16T08:30:58.505Z,22.79
2018-08-16T08:31:58.538Z,22.84
2018-08-16T08:32:58.568Z,22.81
2018-08-16T08:33:58.591Z,22.94
2018-08-16T08:34:58.615Z,22.97
2018-08-16T08:35:58.641Z,23.00
2018-08-16T08:36:58.672Z,23.07
2018-08-16T08:37:58.697Z,23.12
2018-08-16T08:38:58.812Z,23.07
2018-08-16T08:39:58.748Z,23.03
2018-08-16T08:40:58.773Z,23.14
2018-08-16T08:41:58.806Z,23.14
2018-08-16T08:42:58.826Z,23.11
2018-08-16T08:43:58.860Z,23.15
2018-08-16T08:44:58.880Z,23.15
2018-08-16T08:45:58.906Z,23.19
2018-08-16T08:46:58.930Z,23.21
2018-08-16T08:47:58.956Z,23.18
2018-08-16T08:48:58.983Z,23.23
2018-08-16T08:49:59.014Z,23.22
2018-08-16T08:50:59.042Z,23.31
2018-08-16T08:51:59.052Z,23.23
2018-08-16T08:52:59.086Z,23.31
2018-08-16T08:53:59.110Z,23.45
2018-08-16T08:54:59.138Z,23.44
2018-08-16T08:55:59.172Z,23.45
2018-08-16T08:56:59.188Z,23.47
2018-08-16T08:57:59.216Z,23.54
2018-08-16T08:58:59.240Z,23.60
2018-08-16T08:59:59.280Z,23.56
2018-08-16T09:00:59.296Z,23.62
2018-08-16T09:01:59.323Z,23.67
2018-08-16T09:02:59.345Z,23.63
2018-08-16T09:03:59.376Z,23.69
2018-08-16T09:04:59.401Z,23.78
2018-08-16T09:05:59.437Z,23.84
2018-08-16T09:06:59.480Z,23.93
2018-08-16T09:07:59.489Z,23.97
2018-08-16T09:08:59.510Z,23.99
2018-08-16T09:09:59.536Z,24.02
2018-08-16T09:10:59.562Z,24.11
2018-08-16T09:11:59.586Z,24.18
2018-08-16T09:12:59.620Z,24.21
2018-08-16T09:13:59.636Z,24.24
2018-08-16T09:14:59.666Z,24.29
2018-08-16T09:15:59.698Z,24.37
2018-08-16T09:16:59.721Z,24.53
2018-08-16T09:17:59.749Z,24.55
2018-08-16T09:18:59.793Z,24.55
2018-08-16T09:19:59.800Z,24.61
2018-08-16T09:20:59.826Z,24.59
2018-08-16T09:21:59.858Z,24.56
2018-08-16T09:22:59.884Z,24.80
2018-08-16T09:23:59.942Z,24.80
2018-08-16T09:24:59.936Z,24.71
2018-08-16T09:25:59.965Z,24.71
2018-08-16T09:26:59.988Z,24.64
2018-08-16T09:28:00.025Z,24.66
2018-08-16T09:29:00.060Z,24.55
2018-08-16T09:30:00.070Z,24.59
2018-08-16T09:31:00.143Z,24.52
2018-08-16T09:32:00.127Z,24.55
2018-08-16T09:33:00.158Z,24.46
2018-08-16T09:34:00.188Z,24.48
2018-08-16T09:35:00.206Z,24.34
2018-08-16T09:36:00.230Z,24.37
2018-08-16T09:37:00.260Z,24.44
2018-08-16T09:38:00.287Z,24.44
2018-08-16T09:39:00.315Z,24.34
2018-08-16T09:40:00.343Z,24.45
2018-08-16T09:41:00.368Z,24.53
2018-08-16T09:42:00.392Z,24.59
2018-08-16T09:43:00.420Z,24.59
2018-08-16T09:44:00.447Z,24.53
2018-08-16T09:45:00.478Z,24.42
2018-08-16T09:46:00.504Z,24.41
2018-08-16T09:47:00.525Z,24.52
2018-08-16T09:48:00.554Z,24.51
2018-08-16T09:49:00.584Z,24.64
2018-08-16T09:50:00.603Z,24.66
2018-08-16T09:51:00.636Z,24.84
2018-08-16T09:52:00.661Z,24.94
2018-08-16T09:53:00.688Z,25.08
2018-08-16T09:54:00.718Z,25.02
2018-08-16T09:55:00.738Z,25.02
2018-08-16T09:56:00.769Z,25.12
2018-08-16T09:57:00.792Z,25.30
2018-08-16T09:58:00.824Z,25.20
2018-08-16T09:59:00.850Z,25.35
2018-08-16T10:00:00.874Z,25.41
2018-08-16T10:01:00.905Z,25.53
2018-08-16T10:02:00.994Z,25.46
2018-08-16T10:03:00.960Z,25.54
2018-08-16T10:04:00.980Z,25.45
2018-08-16T10:05:01.016Z,25.51
2018-08-16T10:06:01.044Z,25.57
2018-08-16T10:07:01.078Z,25.49
2018-08-16T10:08:01.098Z,25.57
2018-08-16T10:09:01.127Z,25.61
2018-08-16T10:10:01.154Z,25.63
2018-08-16T10:11:01.180Z,25.51
2018-08-16T10:12:01.204Z,25.63
2018-08-16T10:13:01.229Z,25.61
2018-08-16T10:14:01.262Z,25.78
2018-08-16T10:15:01.290Z,26.00
2018-08-16T10:16:01.314Z,25.97
2018-08-16T10:17:01.344Z,26.04
2018-08-16T10:18:01.374Z,26.13
2018-08-16T10:19:01.404Z,26.11
2018-08-16T10:20:01.424Z,26.11
2018-08-16T10:21:01.454Z,26.04
2018-08-16T10:22:01.478Z,26.13
2018-08-16T10:23:01.509Z,26.09
2018-08-16T10:24:01.536Z,26.11
2018-08-16T10:25:01.576Z,26.17
2018-08-16T10:26:01.590Z,26.09
2018-08-16T10:27:01.681Z,26.12
2018-08-16T10:28:01.653Z,26.16
2018-08-16T10:29:01.672Z,26.20
2018-08-16T10:30:01.703Z,26.12
2018-08-16T10:31:01.731Z,26.29
2018-08-16T10:32:01.754Z,26.24
2018-08-16T10:33:01.782Z,26.23
2018-08-16T10:34:01.813Z,26.31
2018-08-16T10:35:01.844Z,26.12
2018-08-16T10:36:01.868Z,26.11
2018-08-16T10:37:01.909Z,25.97
2018-08-16T10:38:01.931Z,25.96
2018-08-16T10:39:01.952Z,25.96
2018-08-16T10:40:01.974Z,25.81
2018-08-16T10:41:02.008Z,25.81
2018-08-16T10:42:02.035Z,25.71
2018-08-16T10:43:02.060Z,25.69
2018-08-16T10:44:02.098Z,25.76
2018-08-16T10:45:02.120Z,25.60
2018-08-16T10:46:02.149Z,25.67
2018-08-16T10:47:02.173Z,25.83
2018-08-16T10:48:02.204Z,25.78
2018-08-16T10:49:02.230Z,25.91
2018-08-16T10:50:02.252Z,25.94
2018-08-16T10:51:02.282Z,26.20
2018-08-16T10:52:02.309Z,26.36
2018-08-16T10:53:02.339Z,26.60
2018-08-16T10:54:02.363Z,26.79
2018-08-16T10:55:02.395Z,26.97
2018-08-16T10:56:02.421Z,27.08
2018-08-16T10:57:02.452Z,27.27
2018-08-16T10:58:02.473Z,27.55
2018-08-16T10:59:02.511Z,27.71
2018-08-16T11:00:02.567Z,28.08
2018-08-16T11:01:02.565Z,28.28
2018-08-16T11:02:02.592Z,28.25
2018-08-16T11:03:02.628Z,27.86
2018-08-16T11:04:02.652Z,27.99
2018-08-16T11:05:02.683Z,28.38
2018-08-16T11:06:02.713Z,28.39
2018-08-16T11:07:02.745Z,28.76
2018-08-16T11:08:02.776Z,29.18
2018-08-16T11:09:02.801Z,29.54
2018-08-16T11:10:02.838Z,29.74
2018-08-16T11:11:02.871Z,30.94
2018-08-16T11:12:02.903Z,31.72
2018-08-16T11:13:02.932Z,33.12
2018-08-16T11:14:02.964Z,33.70
2018-08-16T11:15:02.994Z,34.98
2018-08-16T11:16:03.031Z,35.54
2018-08-16T11:17:03.068Z,35.89
2018-08-16T11:18:03.093Z,36.41
2018-08-16T11:19:03.141Z,35.78
2018-08-16T11:20:03.173Z,35.93
2018-08-16T11:21:03.207Z,35.98
2018-08-16T11:22:03.232Z,34.65
2018-08-16T11:23:03.277Z,35.09
2018-08-16T11:24:03.307Z,33.84
2018-08-16T11:25:03.340Z,35.17
2018-08-16T11:26:03.381Z,34.67
2018-08-16T11:27:03.414Z,33.93
2018-08-16T11:28:03.454Z,33.68
2018-08-16T11:29:03.484Z,33.03
2018-08-16T11:30:03.521Z,31.88
2018-08-16T11:31:03.559Z,31.38
2018-08-16T11:32:03.599Z,32.31
2018-08-16T11:33:03.626Z,33.66
2018-08-16T11:34:03.663Z,34.94
2018-08-16T11:35:03.718Z,35.07
2018-08-16T11:36:03.734Z,34.37
2018-08-16T11:37:03.769Z,32.90
2018-08-16T11:38:03.805Z,32.10
2018-08-16T11:39:03.843Z,31.49
2018-08-16T11:40:03.873Z,32.06
2018-08-16T11:41:03.909Z,32.10
2018-08-16T11:42:03.939Z,31.45
2018-08-16T11:43:03.975Z,31.50
2018-08-16T11:44:04.015Z,33.43
2018-08-16T11:45:04.049Z,34.84
2018-08-16T11:46:04.085Z,36.06
2018-08-16T11:47:04.122Z,36.33
2018-08-16T11:48:04.153Z,35.22
2018-08-16T11:49:04.192Z,33.09
2018-08-16T11:50:04.223Z,31.37
2018-08-16T11:51:04.263Z,31.04
2018-08-16T11:52:04.291Z,31.09
2018-08-16T11:53:04.325Z,32.49
2018-08-16T11:54:04.361Z,32.49
2018-08-16T11:55:04.401Z,34.16
2018-08-16T11:56:04.433Z,35.21
2018-08-16T11:57:04.473Z,35.12
2018-08-16T11:58:04.505Z,34.23
2018-08-16T11:59:04.549Z,33.68
2018-08-16T12:00:04.569Z,33.55
2018-08-16T12:01:04.610Z,32.81
2018-08-16T12:02:04.673Z,33.03
2018-08-16T12:03:04.679Z,33.86
2018-08-16T12:04:04.712Z,33.31
2018-08-16T12:05:04.763Z,33.56
2018-08-16T12:06:04.786Z,35.29
2018-08-16T12:07:04.820Z,36.74
2018-08-16T12:08:04.855Z,36.94
2018-08-16T12:09:04.891Z,37.27
2018-08-16T12:10:04.931Z,37.96
2018-08-16T12:11:04.961Z,37.81
2018-08-16T12:12:04.996Z,39.02
2018-08-16T12:13:05.029Z,38.86
2018-08-16T12:14:05.065Z,39.85
2018-08-16T12:15:05.111Z,40.15
2018-08-16T12:16:05.149Z,38.81
2018-08-16T12:17:05.179Z,36.83
2018-08-16T12:18:05.221Z,36.53
2018-08-16T12:19:05.250Z,35.18
2018-08-16T12:20:05.288Z,34.14
2018-08-16T12:21:08.206Z,33.21
2018-08-16T12:23:11.603Z,33.40
2018-08-16T12:26:48.946Z,36.43
2018-08-16T12:27:48.985Z,36.72
2018-08-16T12:28:49.038Z,36.53
2018-08-16T12:29:49.053Z,37.04
2018-08-16T12:30:49.100Z,37.49
2018-08-16T12:31:49.143Z,38.21
2018-08-16T12:32:49.168Z,37.18
2018-08-16T12:33:49.207Z,36.86
2018-08-16T12:34:49.296Z,36.28
2018-08-16T12:35:49.281Z,34.99
2018-08-16T12:36:49.324Z,35.06
2018-08-16T12:37:49.467Z,35.95
2018-08-16T12:38:49.392Z,34.93
2018-08-16T12:39:49.437Z,33.52
2018-08-16T12:40:50.199Z,34.23
2018-08-16T12:41:52.361Z,35.49
2018-08-16T12:42:49.544Z,35.49
2018-08-16T12:43:49.583Z,35.02
2018-08-16T12:44:49.618Z,34.56
2018-08-16T12:45:49.661Z,33.97
2018-08-16T12:46:49.695Z,34.09
2018-08-16T12:47:49.787Z,33.90
2018-08-16T12:48:49.766Z,35.05
2018-08-16T12:49:49.804Z,35.25
2018-08-16T12:50:49.837Z,34.49
2018-08-16T12:51:49.873Z,35.09
2018-08-16T12:52:49.904Z,36.74
2018-08-16T12:53:49.947Z,38.04
2018-08-16T12:54:50.487Z,38.93
2018-08-16T12:55:50.017Z,37.95
2018-08-16T12:56:50.056Z,38.33
2018-08-16T12:57:50.093Z,38.68
2018-08-16T12:58:50.127Z,39.36